West Edmeston, New York
Current Conditions -  °F | °C
As of 7:10 AM on Friday 21 Nov 2014 (Local Time) from KRME Reporting Station
Light Snow Light Snow  
Wind Chill: 10°   Ceiling: 3200
Heat Index: 21°   Visibility: 2.5mi
Dew Point: 18°   Wind: 10mph
Humidity: 88%   Direction: 280°W
Pressure: 30.15"   Gusts: NA
Location:  42.76°N, 75.28°W
Report Text: KRME 211210Z 28009KT 2 1/2SM -SN BR FEW010 BKN032 OVC047 M06/M08 A3015 RMK AO2 P0000 T10611078
Loading
Personal Weather Stations






























Interactive Weather Map New forecast layout! Learn more

10-Day Weather Forecast

Advertisements
Track Severe Weather on mobile